Terminal Aerodrome Forecast
Issued by NWS

Home | Current Version | Previous Version | Text Only | Print | Product List | Glossary On
Versions: 1 2 3 4 5 6 7 8 9 10 11 12 13 14 15 16 17 18
000
FTUS45 KFGZ 250535
TAFSEZ
TAF
KSEZ 250535Z 2506/2606 VRB05KT P6SM FEW120 BKN250
     FM252000 VRB10G20KT P6SM VCTS BKN100CB BKN150
      TEMPO 2520/2524 VRB20G30KT 2SM TSRA BKN080CB OVC150
     FM260300 VRB06KT P6SM SCT100 BKN150=

USA.gov is the U.S. government's official web portal to all federal, state and local government web resources and services.